METAR AND TAF INFORMATION
METAR FOR KMIA
KMIA 220853Z 04004KT 10SM FEW025 FEW035 26/22 A2991 RMK AO2 SLP129 T02560222 55003 $
KMIA 220753Z 00000KT 10SM FEW025 25/22 A2990 RMK AO2 SLP125 T02500222 $
KMIA 220653Z 02003KT 10SM FEW025 26/22 A2990 RMK AO2 SLP126 T02610222 $
KMIA 220846Z 2209/2312 VRB04KT P6SM FEW030
FM221500 10008KT P6SM FEW030 SCT050
FM221800 10010KT P6SM VCTS SCT030CB BKN050
FM230100 VRB04KT P6SM FEW030 SCT060 SCT250

 AIRPORT MAP

 RUNWAY INFORMATION
Runway 08L Runway length 8600 ft Runway width 150 ft
Runway elevation 8 ft Runway displaced threshold 0 ft Runway heading 87
Runway 26R Runway length 8600 ft Runway width 150 ft
Runway elevation 8 ft Runway displaced threshold 0 ft Runway heading 267
Runway 08R Runway length 10506 ft Runway width 200 ft
Runway elevation 8 ft Runway displaced threshold 0 ft Runway heading 87
Runway 26L Runway length 10506 ft Runway width 200 ft
Runway elevation 8 ft Runway displaced threshold 0 ft Runway heading 267
Runway 09 Runway length 13000 ft Runway width 150 ft
Runway elevation 7 ft Runway displaced threshold 1350 ft Runway heading 87
Runway 27 Runway length 13000 ft Runway width 150 ft
Runway elevation 8 ft Runway displaced threshold 1270 ft Runway heading 267
Runway 12 Runway length 9354 ft Runway width 150 ft
Runway elevation 8 ft Runway displaced threshold 0 ft Runway heading 119
Runway 30 Runway length 9354 ft Runway width 150 ft
Runway elevation 8 ft Runway displaced threshold 939 ft Runway heading 299

 AIRPORT FREQUENCIES
Type APP Name APP Frequency 120.5 MHZ
Type ATIS Name ATIS Frequency 119.15 MHZ
Type CLD Name CLNC DEL Frequency 120.35 MHZ
Type DEP Name DEP Frequency 119.45 MHZ
Type GND Name GND Frequency 121.8 MHZ
Type TWR Name TWR Frequency 118.3 MHZ
Type UNIC Name UNICOM Frequency 123 MHZ

 AIRPORT NEAR NAVIGATION AIDS
Type VORTAC Name Dolphin Frequency 113900 KHZ
Type NDB Name Keyes Frequency 248 KHZ

-